sensor_id;sensor_type;location;lat;lon;timestamp;pressure;altitude;pressure_sealevel;temperature;humidity
47761;BME280;33524;55.434;38.520;2022-11-15T00:01:13;100973.00;;;-4.85;83.76
47761;BME280;33524;55.434;38.520;2022-11-15T00:04:01;100970.44;;;-4.85;83.41
47761;BME280;33524;55.434;38.520;2022-11-15T00:06:47;100954.16;;;-4.78;82.11
47761;BME280;33524;55.434;38.520;2022-11-15T00:09:35;100965.31;;;-4.83;83.30
47761;BME280;33524;55.434;38.520;2022-11-15T00:12:32;100958.44;;;-4.66;85.04
47761;BME280;33524;55.434;38.520;2022-11-15T00:15:24;100934.53;;;-4.77;85.86
47761;BME280;33524;55.434;38.520;2022-11-15T00:18:14;100952.44;;;-4.56;86.83
47761;BME280;33524;55.434;38.520;2022-11-15T00:21:06;100945.59;;;-4.49;85.60
47761;BME280;33524;55.434;38.520;2022-11-15T00:23:53;100943.91;;;-4.56;83.90
47761;BME280;33524;55.434;38.520;2022-11-15T00:26:42;100949.00;;;-4.47;82.97
47761;BME280;33524;55.434;38.520;2022-11-15T00:29:28;100932.72;;;-4.44;80.16
47761;BME280;33524;55.434;38.520;2022-11-15T00:32:14;100931.03;;;-4.44;78.81
47761;BME280;33524;55.434;38.520;2022-11-15T00:35:00;100925.91;;;-4.53;82.01
47761;BME280;33524;55.434;38.520;2022-11-15T00:37:47;100930.19;;;-4.49;82.98
47761;BME280;33524;55.434;38.520;2022-11-15T00:40:34;100925.94;;;-4.62;80.76
47761;BME280;33524;55.434;38.520;2022-11-15T00:43:20;100928.47;;;-4.53;80.07
47761;BME280;33524;55.434;38.520;2022-11-15T00:46:06;100922.47;;;-4.57;79.12
47761;BME280;33524;55.434;38.520;2022-11-15T00:48:54;100914.78;;;-4.55;78.45
47761;BME280;33524;55.434;38.520;2022-11-15T00:51:42;100930.19;;;-4.49;77.32
47761;BME280;33524;55.434;38.520;2022-11-15T00:54:29;100913.06;;;-4.46;76.31
47761;BME280;33524;55.434;38.520;2022-11-15T00:57:15;100920.72;;;-4.33;75.30
47761;BME280;33524;55.434;38.520;2022-11-15T01:00:01;100914.72;;;-4.26;74.60
47761;BME280;33524;55.434;38.520;2022-11-15T01:02:47;100916.38;;;-4.08;73.41
47761;BME280;33524;55.434;38.520;2022-11-15T01:05:45;100900.94;;;-4.08;72.86
47761;BME280;33524;55.434;38.520;2022-11-15T01:08:32;100900.09;;;-4.12;74.20
47761;BME280;33524;55.434;38.520;2022-11-15T01:11:18;100877.91;;;-4.27;77.89
47761;BME280;33524;55.434;38.520;2022-11-15T01:14:05;100911.19;;;-4.03;79.09
47761;BME280;33524;55.434;38.520;2022-11-15T01:16:54;100906.03;;;-3.96;79.40
47761;BME280;33524;55.434;38.520;2022-11-15T01:19:41;100902.53;;;-3.78;81.15
47761;BME280;33524;55.434;38.520;2022-11-15T01:22:27;100905.06;;;-3.73;81.63
47761;BME280;33524;55.434;38.520;2022-11-15T01:25:13;100904.16;;;-3.61;82.03
47761;BME280;33524;55.434;38.520;2022-11-15T01:28:00;100899.78;;;-3.50;82.84
47761;BME280;33524;55.434;38.520;2022-11-15T01:30:46;100895.47;;;-3.47;83.11
47761;BME280;33524;55.434;38.520;2022-11-15T01:33:35;100888.56;;;-3.37;83.33
47761;BME280;33524;55.434;38.520;2022-11-15T01:36:23;100883.38;;;-3.32;82.98
47761;BME280;33524;55.434;38.520;2022-11-15T01:39:34;100880.75;;;-3.28;82.84
47761;BME280;33524;55.434;38.520;2022-11-15T01:42:20;100892.69;;;-3.17;83.13
47761;BME280;33524;55.434;38.520;2022-11-15T01:45:13;100892.59;;;-3.08;81.78
47761;BME280;33524;55.434;38.520;2022-11-15T01:48:00;100887.44;;;-3.05;82.83
47761;BME280;33524;55.434;38.520;2022-11-15T01:50:47;100898.47;;;-2.89;82.17
47761;BME280;33524;55.434;38.520;2022-11-15T01:53:37;100888.97;;;-2.86;82.17
47761;BME280;33524;55.434;38.520;2022-11-15T01:56:27;100901.84;;;-2.82;79.93
47761;BME280;33524;55.434;38.520;2022-11-15T01:59:15;100896.69;;;-2.81;80.68
47761;BME280;33524;55.434;38.520;2022-11-15T02:02:02;100891.53;;;-2.81;79.81
47761;BME280;33524;55.434;38.520;2022-11-15T02:04:48;100882.84;;;-2.74;80.06
47761;BME280;33524;55.434;38.520;2022-11-15T02:07:35;100875.13;;;-2.75;80.76
47761;BME280;33524;55.434;38.520;2022-11-15T02:10:23;100875.06;;;-2.66;81.47
47761;BME280;33524;55.434;38.520;2022-11-15T02:13:10;100875.91;;;-2.67;80.99
47761;BME280;33524;55.434;38.520;2022-11-15T02:16:20;100867.34;;;-2.66;81.29
47761;BME280;33524;55.434;38.520;2022-11-15T02:19:23;100874.25;;;-2.70;81.24
47761;BME280;33524;55.434;38.520;2022-11-15T02:22:21;100873.41;;;-2.72;81.32
47761;BME280;33524;55.434;38.520;2022-11-15T02:25:37;100873.50;;;-2.81;78.03
47761;BME280;33524;55.434;38.520;2022-11-15T02:28:38;100864.91;;;-2.78;77.40
47761;BME280;33524;55.434;38.520;2022-11-15T02:31:41;100872.56;;;-2.74;75.81
47761;BME280;33524;55.434;38.520;2022-11-15T02:34:53;100875.13;;;-2.71;74.87
47761;BME280;33524;55.434;38.520;2022-11-15T02:37:52;100865.59;;;-2.66;72.93
47761;BME280;33524;55.434;38.520;2022-11-15T02:43:47;100842.38;;;-2.58;72.74
47761;BME280;33524;55.434;38.520;2022-11-15T02:46:59;100855.16;;;-2.52;71.81
47761;BME280;33524;55.434;38.520;2022-11-15T02:50:08;100857.75;;;-2.53;70.92
47761;BME280;33524;55.434;38.520;2022-11-15T02:52:56;100857.53;;;-2.33;71.74
47761;BME280;33524;55.434;38.520;2022-11-15T02:55:45;100854.97;;;-2.35;69.13
47761;BME280;33524;55.434;38.520;2022-11-15T02:58:57;100854.91;;;-2.32;69.61
47761;BME280;33524;55.434;38.520;2022-11-15T03:02:02;100856.66;;;-2.34;69.83
47761;BME280;33524;55.434;38.520;2022-11-15T03:08:29;100843.69;;;-2.26;71.21
47761;BME280;33524;55.434;38.520;2022-11-15T03:11:18;100850.59;;;-2.30;73.01
47761;BME280;33524;55.434;38.520;2022-11-15T03:14:11;100857.53;;;-2.35;72.50
47761;BME280;33524;55.434;38.520;2022-11-15T03:20:01;100855.06;;;-2.44;72.92
47761;BME280;33524;55.434;38.520;2022-11-15T03:22:50;100849.91;;;-2.44;74.25
47761;BME280;33524;55.434;38.520;2022-11-15T03:25:43;100837.06;;;-2.46;75.33
47761;BME280;33524;55.434;38.520;2022-11-15T03:28:35;100847.37;;;-2.46;76.56
47761;BME280;33524;55.434;38.520;2022-11-15T03:31:25;100832.00;;;-2.52;77.02
47761;BME280;33524;55.434;38.520;2022-11-15T03:34:44;100838.81;;;-2.48;77.39
47761;BME280;33524;55.434;38.520;2022-11-15T03:37:44;100839.66;;;-2.47;77.30
47761;BME280;33524;55.434;38.520;2022-11-15T03:40:40;100838.84;;;-2.51;77.53
47761;BME280;33524;55.434;38.520;2022-11-15T03:49:44;100832.75;;;-2.44;78.06
47761;BME280;33524;55.434;38.520;2022-11-15T03:52:34;100826.78;;;-2.49;79.03
47761;BME280;33524;55.434;38.520;2022-11-15T03:55:20;100827.63;;;-2.48;79.08
47761;BME280;33524;55.434;38.520;2022-11-15T03:58:07;100826.78;;;-2.47;79.24
47761;BME280;33524;55.434;38.520;2022-11-15T04:00:53;100833.63;;;-2.46;80.07
47761;BME280;33524;55.434;38.520;2022-11-15T04:03:43;100837.88;;;-2.42;80.64
47761;BME280;33524;55.434;38.520;2022-11-15T04:06:33;100827.56;;;-2.40;79.97
47761;BME280;33524;55.434;38.520;2022-11-15T04:09:19;100837.03;;;-2.42;79.89
47761;BME280;33524;55.434;38.520;2022-11-15T04:12:06;100837.91;;;-2.45;79.63
47761;BME280;33524;55.434;38.520;2022-11-15T04:14:52;100833.59;;;-2.41;77.70
47761;BME280;33524;55.434;38.520;2022-11-15T04:17:55;100824.06;;;-2.38;77.74
47761;BME280;33524;55.434;38.520;2022-11-15T04:20:41;100824.06;;;-2.35;78.26
47761;BME280;33524;55.434;38.520;2022-11-15T04:23:49;100822.34;;;-2.36;78.93
47761;BME280;33524;55.434;38.520;2022-11-15T04:26:57;100835.19;;;-2.33;79.89
47761;BME280;33524;55.434;38.520;2022-11-15T04:29:43;100825.78;;;-2.35;79.96
47761;BME280;33524;55.434;38.520;2022-11-15T04:32:30;100814.59;;;-2.34;79.96
47761;BME280;33524;55.434;38.520;2022-11-15T04:35:17;100818.06;;;-2.35;80.00
47761;BME280;33524;55.434;38.520;2022-11-15T04:38:05;100824.00;;;-2.30;80.45
47761;BME280;33524;55.434;38.520;2022-11-15T04:40:52;100819.72;;;-2.31;81.27
47761;BME280;33524;55.434;38.520;2022-11-15T04:43:41;100824.84;;;-2.30;79.62
47761;BME280;33524;55.434;38.520;2022-11-15T04:46:28;100798.41;;;-2.44;79.69
47761;BME280;33524;55.434;38.520;2022-11-15T04:49:14;100812.00;;;-2.33;80.25
47761;BME280;33524;55.434;38.520;2022-11-15T04:52:00;100806.81;;;-2.30;80.34
47761;BME280;33524;55.434;38.520;2022-11-15T04:54:47;100811.19;;;-2.35;80.76
47761;BME280;33524;55.434;38.520;2022-11-15T04:57:33;100799.97;;;-2.32;81.05
47761;BME280;33524;55.434;38.520;2022-11-15T05:00:19;100796.56;;;-2.33;80.47
47761;BME280;33524;55.434;38.520;2022-11-15T05:03:09;100785.47;;;-2.39;80.60
47761;BME280;33524;55.434;38.520;2022-11-15T05:06:14;100788.00;;;-2.35;80.49
47761;BME280;33524;55.434;38.520;2022-11-15T05:09:00;100799.13;;;-2.33;80.45
47761;BME280;33524;55.434;38.520;2022-11-15T05:11:47;100783.75;;;-2.37;80.91
47761;BME280;33524;55.434;38.520;2022-11-15T05:14:33;100794.88;;;-2.35;81.26
47761;BME280;33524;55.434;38.520;2022-11-15T05:17:19;100785.47;;;-2.39;81.65
47761;BME280;33524;55.434;38.520;2022-11-15T05:20:06;100777.69;;;-2.36;82.29
47761;BME280;33524;55.434;38.520;2022-11-15T05:22:55;100792.16;;;-2.25;82.22
47761;BME280;33524;55.434;38.520;2022-11-15T05:25:42;100779.28;;;-2.28;81.62
47761;BME280;33524;55.434;38.520;2022-11-15T05:28:31;100790.41;;;-2.24;81.46
47761;BME280;33524;55.434;38.520;2022-11-15T05:31:18;100784.41;;;-2.25;80.57
47761;BME280;33524;55.434;38.520;2022-11-15T05:34:05;100790.31;;;-2.16;79.42
47761;BME280;33524;55.434;38.520;2022-11-15T05:36:54;100790.25;;;-2.12;79.00
47761;BME280;33524;55.434;38.520;2022-11-15T05:39:44;100788.53;;;-2.11;79.90
47761;BME280;33524;55.434;38.520;2022-11-15T05:42:30;100785.09;;;-2.10;79.93
47761;BME280;33524;55.434;38.520;2022-11-15T05:45:16;100776.37;;;-2.03;79.58
47761;BME280;33524;55.434;38.520;2022-11-15T05:48:11;100777.19;;;-1.98;79.13
47761;BME280;33524;55.434;38.520;2022-11-15T05:50:58;100774.44;;;-1.89;78.47
47761;BME280;33524;55.434;38.520;2022-11-15T05:53:45;100782.91;;;-1.79;78.53
47761;BME280;33524;55.434;38.520;2022-11-15T05:56:32;100779.37;;;-1.73;78.71
47761;BME280;33524;55.434;38.520;2022-11-15T05:59:19;100773.22;;;-1.63;77.55
47761;BME280;33524;55.434;38.520;2022-11-15T06:02:05;100779.03;;;-1.52;76.38
47761;BME280;33524;55.434;38.520;2022-11-15T06:04:55;100768.50;;;-1.39;74.80
47761;BME280;33524;55.434;38.520;2022-11-15T06:07:41;100773.56;;;-1.35;73.46
47761;BME280;33524;55.434;38.520;2022-11-15T06:10:27;100758.00;;;-1.30;73.88
47761;BME280;33524;55.434;38.520;2022-11-15T06:13:13;100755.44;;;-1.30;75.13
47761;BME280;33524;55.434;38.520;2022-11-15T06:15:59;100775.97;;;-1.24;74.70
47761;BME280;33524;55.434;38.520;2022-11-15T06:18:46;100765.63;;;-1.23;74.15
47761;BME280;33524;55.434;38.520;2022-11-15T06:21:32;100761.25;;;-1.19;73.73
47761;BME280;33524;55.434;38.520;2022-11-15T06:24:18;100767.22;;;-1.15;73.77
47761;BME280;33524;55.434;38.520;2022-11-15T06:27:05;100749.34;;;-1.26;74.20
47761;BME280;33524;55.434;38.520;2022-11-15T06:29:51;100757.84;;;-1.19;73.89
47761;BME280;33524;55.434;38.520;2022-11-15T06:32:37;100758.72;;;-1.22;74.27
47761;BME280;33524;55.434;38.520;2022-11-15T06:35:24;100748.44;;;-1.24;73.87
47761;BME280;33524;55.434;38.520;2022-11-15T06:38:11;100745.81;;;-1.22;73.61
47761;BME280;33524;55.434;38.520;2022-11-15T06:41:05;100749.13;;;-1.14;73.35
47761;BME280;33524;55.434;38.520;2022-11-15T06:43:52;100747.28;;;-1.07;73.37
47761;BME280;33524;55.434;38.520;2022-11-15T06:46:39;100752.25;;;-0.96;73.84
47761;BME280;33524;55.434;38.520;2022-11-15T06:49:28;100737.44;;;-0.88;73.42
47761;BME280;33524;55.434;38.520;2022-11-15T06:52:14;100745.09;;;-0.82;72.48
47761;BME280;33524;55.434;38.520;2022-11-15T06:55:01;100741.53;;;-0.76;72.86
47761;BME280;33524;55.434;38.520;2022-11-15T06:57:51;100738.91;;;-0.75;72.49
47761;BME280;33524;55.434;38.520;2022-11-15T07:00:38;100750.81;;;-0.68;72.65
47761;BME280;33524;55.434;38.520;2022-11-15T07:03:24;100736.97;;;-0.65;72.36
47761;BME280;33524;55.434;38.520;2022-11-15T07:06:11;100747.84;;;-0.49;70.85
47761;BME280;33524;55.434;38.520;2022-11-15T07:08:58;100737.38;;;-0.43;70.64
47761;BME280;33524;55.434;38.520;2022-11-15T07:11:44;100724.38;;;-0.40;69.68
47761;BME280;33524;55.434;38.520;2022-11-15T07:14:33;100727.53;;;-0.27;68.78
47761;BME280;33524;55.434;38.520;2022-11-15T07:17:20;100712.28;;;-0.38;69.13
47761;BME280;33524;55.434;38.520;2022-11-15T07:20:06;100739.56;;;-0.25;68.86
47761;BME280;33524;55.434;38.520;2022-11-15T07:23:02;100732.63;;;-0.23;69.03
47761;BME280;33524;55.434;38.520;2022-11-15T07:25:49;100735.50;;;-0.35;67.90
47761;BME280;33524;55.434;38.520;2022-11-15T07:28:39;100738.22;;;-0.43;66.81
47761;BME280;33524;55.434;38.520;2022-11-15T07:31:28;100732.56;;;-0.60;65.94
47761;BME280;33524;55.434;38.520;2022-11-15T07:34:17;100727.50;;;-0.65;66.52
47761;BME280;33524;55.434;38.520;2022-11-15T07:37:03;100729.25;;;-0.67;66.39
47761;BME280;33524;55.434;38.520;2022-11-15T07:39:49;100729.59;;;-0.84;66.82
47761;BME280;33524;55.434;38.520;2022-11-15T07:42:36;100729.44;;;-0.74;66.23
47761;BME280;33524;55.434;38.520;2022-11-15T07:45:44;100727.94;;;-0.86;65.86
47761;BME280;33524;55.434;38.520;2022-11-15T07:48:31;100723.84;;;-0.56;66.08
47761;BME280;33524;55.434;38.520;2022-11-15T07:51:29;100707.78;;;-0.69;65.75
47761;BME280;33524;55.434;38.520;2022-11-15T07:54:22;100679.09;;;-0.56;65.91
47761;BME280;33524;55.434;38.520;2022-11-15T07:57:09;100685.03;;;-0.51;65.76
47761;BME280;33524;55.434;38.520;2022-11-15T07:59:55;100696.59;;;-0.29;64.18
47761;BME280;33524;55.434;38.520;2022-11-15T08:02:41;100700.84;;;-0.28;63.27
47761;BME280;33524;55.434;38.520;2022-11-15T08:05:31;100689.28;;;-0.49;62.43
47761;BME280;33524;55.434;38.520;2022-11-15T08:08:51;100700.72;;;-0.61;62.49
47761;BME280;33524;55.434;38.520;2022-11-15T08:11:33;100698.63;;;-0.84;61.88
47761;BME280;33524;55.434;38.520;2022-11-15T08:14:22;100701.22;;;-0.85;60.83
47761;BME280;33524;55.434;38.520;2022-11-15T08:17:09;100707.03;;;-0.74;63.46
47761;BME280;33524;55.434;38.520;2022-11-15T08:19:56;100702.16;;;-0.89;62.85
47761;BME280;33524;55.434;38.520;2022-11-15T08:22:51;100693.91;;;-0.65;62.79
47761;BME280;33524;55.434;38.520;2022-11-15T08:25:50;100691.16;;;-0.97;62.22
47761;BME280;33524;55.434;38.520;2022-11-15T08:28:37;100683.72;;;-0.71;61.73
47761;BME280;33524;55.434;38.520;2022-11-15T08:31:23;100673.66;;;-0.44;62.25
47761;BME280;33524;55.434;38.520;2022-11-15T08:34:19;100680.25;;;-0.31;60.30
47761;BME280;33524;55.434;38.520;2022-11-15T08:37:06;100681.97;;;-0.31;60.95
47761;BME280;33524;55.434;38.520;2022-11-15T08:39:52;100681.97;;;-0.31;60.25
47761;BME280;33524;55.434;38.520;2022-11-15T08:42:39;100681.63;;;-0.16;59.71
47761;BME280;33524;55.434;38.520;2022-11-15T08:45:25;100663.81;;;-0.27;58.31
47761;BME280;33524;55.434;38.520;2022-11-15T08:48:11;100678.25;;;-0.18;59.60
47761;BME280;33524;55.434;38.520;2022-11-15T08:51:00;100680.69;;;-0.12;59.69
47761;BME280;33524;55.434;38.520;2022-11-15T08:53:49;100672.00;;;-0.09;59.37
47761;BME280;33524;55.434;38.520;2022-11-15T08:56:36;100675.34;;;-0.04;58.74
47761;BME280;33524;55.434;38.520;2022-11-15T08:59:26;100678.16;;;-0.15;58.57
47761;BME280;33524;55.434;38.520;2022-11-15T09:02:13;100675.25;;;-0.01;60.02
47761;BME280;33524;55.434;38.520;2022-11-15T09:05:00;100669.97;;;0.02;60.14
47761;BME280;33524;55.434;38.520;2022-11-15T09:07:53;100665.66;;;-0.33;57.09
47761;BME280;33524;55.434;38.520;2022-11-15T09:10:40;100663.03;;;-0.71;56.39
47761;BME280;33524;55.434;38.520;2022-11-15T09:13:27;100656.63;;;-0.53;57.11
47761;BME280;33524;55.434;38.520;2022-11-15T09:16:13;100661.88;;;-0.18;59.87
47761;BME280;33524;55.434;38.520;2022-11-15T09:19:01;100645.16;;;-0.04;60.37
47761;BME280;33524;55.434;38.520;2022-11-15T09:21:52;100635.16;;;-0.19;58.63
47761;BME280;33524;55.434;38.520;2022-11-15T09:24:38;100637.28;;;-0.01;58.75
47761;BME280;33524;55.434;38.520;2022-11-15T09:27:28;100631.03;;;0.08;57.71
47761;BME280;33524;55.434;38.520;2022-11-15T09:30:17;100629.09;;;0.16;56.09
47761;BME280;33524;55.434;38.520;2022-11-15T09:33:13;100623.59;;;0.62;64.29
47761;BME280;33524;55.434;38.520;2022-11-15T09:36:00;100624.53;;;0.28;55.65
47761;BME280;33524;55.434;38.520;2022-11-15T09:38:47;100624.59;;;0.25;56.20
47761;BME280;33524;55.434;38.520;2022-11-15T09:44:52;100627.91;;;0.30;57.17
47761;BME280;33524;55.434;38.520;2022-11-15T09:48:24;100628.88;;;0.26;55.42
47761;BME280;33524;55.434;38.520;2022-11-15T09:50:58;100617.13;;;1.36;76.80
47761;BME280;33524;55.434;38.520;2022-11-15T09:56:30;100619.31;;;0.29;56.61
47761;BME280;33524;55.434;38.520;2022-11-15T09:59:05;100606.84;;;0.11;55.31
47761;BME280;33524;55.434;38.520;2022-11-15T10:04:13;100617.06;;;0.15;57.22
47761;BME280;33524;55.434;38.520;2022-11-15T10:06:57;100604.97;;;0.16;57.04
47761;BME280;33524;55.434;38.520;2022-11-15T10:09:35;100607.75;;;0.08;56.99
47761;BME280;33524;55.434;38.520;2022-11-15T10:12:07;100613.41;;;0.24;57.54
47761;BME280;33524;55.434;38.520;2022-11-15T10:14:36;100612.78;;;0.14;55.32
47761;BME280;33524;55.434;38.520;2022-11-15T10:17:33;100603.19;;;0.19;57.53
47761;BME280;33524;55.434;38.520;2022-11-15T10:20:21;100600.56;;;-0.13;57.17
47761;BME280;33524;55.434;38.520;2022-11-15T10:23:00;100595.63;;;0.10;58.47
47761;BME280;33524;55.434;38.520;2022-11-15T10:25:30;100592.66;;;0.26;58.95
47761;BME280;33524;55.434;38.520;2022-11-15T10:28:21;100593.63;;;0.22;56.90
47761;BME280;33524;55.434;38.520;2022-11-15T10:30:56;100586.91;;;0.14;57.01
47761;BME280;33524;55.434;38.520;2022-11-15T10:33:40;100557.12;;;-0.01;64.16
47761;BME280;33524;55.434;38.520;2022-11-15T10:44:09;100582.16;;;-0.01;57.05
47761;BME280;33524;55.434;38.520;2022-11-15T10:46:41;100577.97;;;-0.07;56.83
47761;BME280;33524;55.434;38.520;2022-11-15T10:49:18;100568.34;;;0.00;57.87
47761;BME280;33524;55.434;38.520;2022-11-15T10:51:51;100550.97;;;0.05;57.68
47761;BME280;33524;55.434;38.520;2022-11-15T10:57:30;100549.09;;;0.10;57.97
47761;BME280;33524;55.434;38.520;2022-11-15T11:03:29;100544.12;;;0.35;58.00
47761;BME280;33524;55.434;38.520;2022-11-15T11:06:08;100517.31;;;0.38;65.98
47761;BME280;33524;55.434;38.520;2022-11-15T11:08:40;100532.56;;;0.47;59.18
47761;BME280;33524;55.434;38.520;2022-11-15T11:11:19;100529.84;;;0.20;56.88
47761;BME280;33524;55.434;38.520;2022-11-15T11:13:48;100529.09;;;0.17;57.52
47761;BME280;33524;55.434;38.520;2022-11-15T11:16:37;100527.41;;;0.16;63.56
47761;BME280;33524;55.434;38.520;2022-11-15T11:19:20;100529.38;;;0.06;57.92
47761;BME280;33524;55.434;38.520;2022-11-15T11:22:23;100521.75;;;0.33;63.33
47761;BME280;33524;55.434;38.520;2022-11-15T11:30:30;100510.44;;;0.06;60.13
47761;BME280;33524;55.434;38.520;2022-11-15T11:33:05;100517.41;;;0.02;58.91
47761;BME280;33524;55.434;38.520;2022-11-15T11:36:25;100510.66;;;-0.02;59.69
47761;BME280;33524;55.434;38.520;2022-11-15T11:38:51;100500.38;;;-0.05;59.52
47761;BME280;33524;55.434;38.520;2022-11-15T11:47:03;100491.69;;;0.29;68.40
47761;BME280;33524;55.434;38.520;2022-11-15T11:49:52;100492.19;;;0.10;60.49
47761;BME280;33524;55.434;38.520;2022-11-15T11:52:23;100490.94;;;0.25;70.91
47761;BME280;33524;55.434;38.520;2022-11-15T11:55:17;100488.19;;;0.00;59.13
47761;BME280;33524;55.434;38.520;2022-11-15T12:00:27;100483.19;;;-0.06;61.13
47761;BME280;33524;55.434;38.520;2022-11-15T12:05:57;100475.91;;;0.38;72.11
47761;BME280;33524;55.434;38.520;2022-11-15T12:11:20;100478.25;;;-0.15;61.14
47761;BME280;33524;55.434;38.520;2022-11-15T12:13:58;100471.09;;;0.26;63.01
47761;BME280;33524;55.434;38.520;2022-11-15T12:16:29;100467.37;;;0.05;63.04
47761;BME280;33524;55.434;38.520;2022-11-15T12:19:02;100474.97;;;-0.21;60.22
47761;BME280;33524;55.434;38.520;2022-11-15T12:24:07;100475.31;;;-0.02;72.68
47761;BME280;33524;55.434;38.520;2022-11-15T12:26:48;100467.78;;;0.20;66.09
47761;BME280;33524;55.434;38.520;2022-11-15T12:31:59;100456.88;;;-0.21;61.00
47761;BME280;33524;55.434;38.520;2022-11-15T12:36:55;100457.66;;;0.13;69.57
47761;BME280;33524;55.434;38.520;2022-11-15T12:44:59;100448.94;;;-0.47;61.77
47761;BME280;33524;55.434;38.520;2022-11-15T12:47:29;100449.34;;;-0.30;69.37
47761;BME280;33524;55.434;38.520;2022-11-15T12:49:58;100449.12;;;-0.53;62.17
47761;BME280;33524;55.434;38.520;2022-11-15T12:52:26;100419.53;;;-0.74;62.13
47761;BME280;33524;55.434;38.520;2022-11-15T12:54:56;100444.28;;;-0.67;63.18
47761;BME280;33524;55.434;38.520;2022-11-15T12:57:28;100442.31;;;-0.57;63.38
47761;BME280;33524;55.434;38.520;2022-11-15T12:59:58;100436.66;;;-0.06;70.78
47761;BME280;33524;55.434;38.520;2022-11-15T13:02:44;100436.09;;;-0.50;63.94
47761;BME280;33524;55.434;38.520;2022-11-15T13:10:28;100427.53;;;-0.52;64.62
47761;BME280;33524;55.434;38.520;2022-11-15T13:13:08;100430.44;;;-0.65;65.90
47761;BME280;33524;55.434;38.520;2022-11-15T13:15:55;100431.00;;;-0.86;65.54
47761;BME280;33524;55.434;38.520;2022-11-15T13:18:39;100428.62;;;-0.95;66.56
47761;BME280;33524;55.434;38.520;2022-11-15T13:21:20;100420.97;;;-0.98;66.76
47761;BME280;33524;55.434;38.520;2022-11-15T13:24:13;100420.22;;;-1.04;67.29
47761;BME280;33524;55.434;38.520;2022-11-15T13:26:41;100416.06;;;-1.09;66.87
47761;BME280;33524;55.434;38.520;2022-11-15T13:29:16;100417.88;;;-1.13;67.91
47761;BME280;33524;55.434;38.520;2022-11-15T13:31:45;100400.91;;;-1.23;67.99
47761;BME280;33524;55.434;38.520;2022-11-15T13:34:29;100412.63;;;-1.10;69.68
47761;BME280;33524;55.434;38.520;2022-11-15T13:39:49;100408.62;;;-0.87;69.38
47761;BME280;33524;55.434;38.520;2022-11-15T13:42:19;100403.84;;;-1.03;69.15
47761;BME280;33524;55.434;38.520;2022-11-15T13:44:58;100402.16;;;-1.04;69.24
47761;BME280;33524;55.434;38.520;2022-11-15T13:47:27;100402.16;;;-1.04;69.95
47761;BME280;33524;55.434;38.520;2022-11-15T13:50:00;100403.91;;;-1.06;70.12
47761;BME280;33524;55.434;38.520;2022-11-15T13:52:40;100404.94;;;-1.11;71.51
47761;BME280;33524;55.434;38.520;2022-11-15T13:55:17;100399.41;;;-0.97;71.52
47761;BME280;33524;55.434;38.520;2022-11-15T13:57:51;100399.00;;;-1.15;72.33
47761;BME280;33524;55.434;38.520;2022-11-15T14:05:42;100385.03;;;-0.73;78.76
47761;BME280;33524;55.434;38.520;2022-11-15T14:10:47;100388.03;;;-1.25;72.55
47761;BME280;33524;55.434;38.520;2022-11-15T14:13:28;100386.16;;;-1.18;73.35
47761;BME280;33524;55.434;38.520;2022-11-15T14:16:19;100385.00;;;-1.40;73.89
47761;BME280;33524;55.434;38.520;2022-11-15T14:18:50;100387.97;;;-1.22;74.72
47761;BME280;33524;55.434;38.520;2022-11-15T14:21:20;100390.19;;;-1.42;75.60
47761;BME280;33524;55.434;38.520;2022-11-15T14:23:52;100387.56;;;-1.40;76.18
47761;BME280;33524;55.434;38.520;2022-11-15T14:26:32;100388.59;;;-1.49;76.61
47761;BME280;33524;55.434;38.520;2022-11-15T14:29:23;100383.31;;;-1.43;76.46
47761;BME280;33524;55.434;38.520;2022-11-15T14:31:52;100385.47;;;-1.62;77.78
47761;BME280;33524;55.434;38.520;2022-11-15T14:34:21;100378.91;;;-1.38;79.53
47761;BME280;33524;55.434;38.520;2022-11-15T14:36:49;100373.22;;;-1.52;79.26
47761;BME280;33524;55.434;38.520;2022-11-15T14:39:17;100373.28;;;-1.55;78.54
47761;BME280;33524;55.434;38.520;2022-11-15T14:41:46;100369.94;;;-1.59;79.28
47761;BME280;33524;55.434;38.520;2022-11-15T14:44:16;100359.00;;;-1.70;80.50
47761;BME280;33524;55.434;38.520;2022-11-15T14:46:46;100365.72;;;-1.63;81.15
47761;BME280;33524;55.434;38.520;2022-11-15T14:49:18;100355.59;;;-1.72;80.56
47761;BME280;33524;55.434;38.520;2022-11-15T14:51:46;100371.06;;;-1.71;80.99
47761;BME280;33524;55.434;38.520;2022-11-15T14:54:16;100360.56;;;-1.63;82.07
47761;BME280;33524;55.434;38.520;2022-11-15T14:56:44;100353.81;;;-1.69;82.67
47761;BME280;33524;55.434;38.520;2022-11-15T14:59:13;100351.97;;;-1.64;83.70
47761;BME280;33524;55.434;38.520;2022-11-15T15:01:41;100354.47;;;-1.59;84.71
47761;BME280;33524;55.434;38.520;2022-11-15T15:04:21;100353.66;;;-1.61;83.63
47761;BME280;33524;55.434;38.520;2022-11-15T15:06:50;100342.56;;;-1.65;83.58
47761;BME280;33524;55.434;38.520;2022-11-15T15:09:18;100339.13;;;-1.65;84.44
47761;BME280;33524;55.434;38.520;2022-11-15T15:11:46;100343.34;;;-1.61;85.88
47761;BME280;33524;55.434;38.520;2022-11-15T15:14:17;100339.72;;;-1.54;87.93
47761;BME280;33524;55.434;38.520;2022-11-15T15:19:33;100337.28;;;-1.60;87.25
47761;BME280;33524;55.434;38.520;2022-11-15T15:22:01;100326.16;;;-1.62;87.44
47761;BME280;33524;55.434;38.520;2022-11-15T15:24:29;100325.16;;;-1.56;88.67
47761;BME280;33524;55.434;38.520;2022-11-15T15:27:00;100301.97;;;-0.89;89.39
47761;BME280;33524;55.434;38.520;2022-11-15T15:29:28;100307.19;;;-0.91;88.34
47761;BME280;33524;55.434;38.520;2022-11-15T15:31:56;100307.75;;;-1.14;88.24
47761;BME280;33524;55.434;38.520;2022-11-15T15:34:25;100313.47;;;-1.35;89.16
47761;BME280;33524;55.434;38.520;2022-11-15T15:39:54;100312.25;;;-1.55;88.93
47761;BME280;33524;55.434;38.520;2022-11-15T15:42:23;100306.94;;;-1.49;89.23
47761;BME280;33524;55.434;38.520;2022-11-15T15:44:51;100306.06;;;-1.49;89.52